NCAR-RAP Real-Time Weather Data

Output produced by METARs form (23 February 2020  00:25 UTC)
found at http://weather.rap.ucar.edu/surface/
 
KNEW 222353Z 11008KT 10SM CLR 13/06 A3035 RMK AO2 SLP272 T01280061 10144 20128 55004
KNEW 222253Z 12007KT 10SM CLR 14/06 A3035 RMK AO2 SLP271 T01390061
KNEW 222153Z AUTO 12007KT 10SM CLR 14/06 A3036 RMK AO2 SLP274 T01440056
KNEW 222053Z 10007KT 10SM CLR 14/06 A3037 RMK AO2 SLP275 T01440056 56027
KNEW 221953Z 13006KT 10SM CLR 14/05 A3039 RMK AO2 SLP283 T01390050
KNEW 221853Z 11007KT 10SM CLR 14/04 A3042 RMK AO2 SLP292 T01390044
KNEW 221753Z 12010KT 10SM CLR 13/04 A3045 RMK AO2 SLP303 T01330044 10133 20067 58016
KNEW 221653Z 07006KT 10SM CLR 12/02 A3048 RMK AO2 SLP316 T01220022
KNEW 221553Z 07008KT 10SM CLR 11/03 A3048 RMK AO2 SLP313 T01060028
KNEW 221453Z 06008KT 10SM CLR 09/02 A3049 RMK AO2 SLP318 T00940022 51018
KNEW 221353Z 08010KT 10SM CLR 07/01 A3047 RMK AO2 SLP310 T00720006
KNEW 221253Z 07011KT 10SM CLR 07/00 A3048 RMK AO2 SLP313 T00670000
KNEW 221153Z AUTO 07012KT 10SM CLR 07/M01 A3044 RMK AO2 SLP301 T00671006 10089 20067 58003
KNEW 221053Z AUTO 06013KT 10SM CLR 07/M01 A3045 RMK AO2 SLP304 T00721006
KNEW 220953Z AUTO 05010KT 10SM CLR 07/M02 A3046 RMK AO2 SLP306 T00721017
KNEW 220853Z AUTO 06012KT 10SM CLR 07/M02 A3045 RMK AO2 SLP304 T00721022 58010
KNEW 220753Z AUTO 07011G20KT 10SM CLR 08/M02 A3047 RMK AO2 SLP311 T00781017
KNEW 220653Z AUTO 06014KT 10SM CLR 08/M02 A3047 RMK AO2 SLP312 T00831017
KNEW 220553Z AUTO 06015KT 10SM CLR 08/M02 A3048 RMK AO2 SLP314 T00831017 10117 20083 401330056 58007
KNEW 220453Z AUTO 04018KT 10SM CLR 09/M01 A3048 RMK AO2 SLP315 T00941011
KNEW 220353Z AUTO 04018KT 10SM CLR 10/00 A3051 RMK AO2 SLP323 T01000000
KNEW 220253Z AUTO 03017KT 10SM CLR 11/00 A3050 RMK AO2 SLP321 T01060000 51015
KNEW 220153Z 02017KT 10SM CLR 11/00 A3049 RMK AO2 SLP318 T01110000
KNEW 220053Z 01015KT 10SM CLR 11/M02 A3047 RMK AO2 SLP311 T01111017
KNEW 212353Z 02013KT 10SM CLR 12/M02 A3046 RMK AO2 SLP307 T01171017 10133 20106 55000
KNEW 212253Z 01014KT 10SM CLR 13/M02 A3044 RMK AO2 SLP301 T01281017
KNEW 212153Z 36010KT 10SM CLR 13/M02 A3045 RMK AO2 SLP305 T01331017
KNEW 212053Z 35011KT 10SM CLR 13/M01 A3046 RMK AO2 SLP307 T01331006 56023
KNEW 211953Z 35012KT 10SM CLR 12/M01 A3048 RMK AO2 SLP313 T01221006
KNEW 211853Z 02010KT 10SM CLR 12/M01 A3050 RMK AO2 SLP322 T01221006
KNEW 211753Z 03014KT 10SM CLR 11/M01 A3053 RMK AO2 SLP330 T01061011 10111 20056 58005
KNEW 211653Z 02014KT 10SM CLR 10/01 A3055 RMK AO2 SLP337 T01000006
KNEW 211553Z 01015KT 10SM CLR 08/01 A3056 RMK AO2 SLP340 T00830006
KNEW 211453Z 02018KT 10SM FEW021 07/01 A3054 RMK AO2 PK WND 03028/1404 SLP335 T00670006 51024
KNEW 211353Z 03022G28KT 10SM SCT021 06/01 A3052 RMK AO2 PK WND 02032/1309 SLP327 T00560006
KNEW 211253Z 02023G31KT 10SM SCT022 06/01 A3050 RMK AO2 PK WND 03031/1232 SLP320 T00610011
KNEW 211153Z AUTO 02024G30KT 10SM SCT024 06/01 A3047 RMK AO2 PK WND 03034/1122 SLP311 70089 T00610011 10089 20061 53019
KNEW 211053Z AUTO 02024G30KT 10SM SCT025 07/01 A3044 RMK AO2 PK WND 02035/1027 SLP301 T00670011
KNEW 211040Z AUTO 02026G34KT 10SM SCT025 07/01 A3044 RMK AO2 PK WND 02035/1027 T00670011
KNEW 210953Z AUTO 02022G30KT 10SM OVC023 07/02 A3042 RMK AO2 PK WND 01032/0940 SLP295 T00720017
KNEW 210853Z AUTO 01021KT 10SM OVC019 08/03 A3041 RMK AO2 PK WND 01029/0800 SLP292 T00780033 53005
KNEW 210753Z AUTO 01023G30KT 10SM OVC020 08/04 A3041 RMK AO2 PK WND 01030/0750 SLP290 T00830039
KNEW 210653Z AUTO 01023KT 10SM OVC020 09/04 A3040 RMK AO2 PK WND 01033/0619 SLP288 T00890044
KNEW 210553Z AUTO 01027G31KT 10SM OVC019 09/05 A3040 RMK AO2 PK WND 02034/0519 SLP287 60002 T00940050 10106 20089 401830089 53008
KNEW 210453Z AUTO 01024G32KT 10SM OVC017 09/05 A3038 RMK AO2 PK WND 36035/0433 SLP281 T00890050
KNEW 210353Z AUTO 01026G33KT 10SM OVC015 09/06 A3038 RMK AO2 PK WND 36034/0312 SLP279 T00940056
KNEW 210350Z AUTO 01027G33KT 10SM OVC015 09/06 A3037 RMK AO2 PK WND 36034/0312
KNEW 210253Z AUTO 36024G32KT 10SM OVC014 09/07 A3036 RMK AO2 PK WND 01036/0223 RAE17 SLP274 P0000 60002 T00940067 51033
KNEW 210217Z 01026G30KT 10SM OVC013 09/07 A3033 RMK AO2 PK WND 36030/0215 RAE17 P0000 T00940067
KNEW 210153Z 01025G30KT 10SM -RA OVC015 10/07 A3033 RMK AO2 PK WND 36033/0129 SLP263 P0000 T01000072
KNEW 210053Z 36023G31KT 10SM -RA OVC014 10/07 A3030 RMK AO2 PK WND 36033/0041 SLP254 P0002 T01000072